Time;durP1;ratioP1;P1;durP2;ratioP2;P2;SDS_P1;SDS_P2;PMS_P1;PMS_P2;Temp;Humidity;BMP_temperature;BMP_pressure;BME280_temperature;BME280_humidity;BME280_pressure;Samples;Min_cycle;Max_cycle;Signal;HPM_P1;HPM_P2
2021/03/07 00:00:27;;;;;;;8.68;7.15;;;;;;;;;;6262347;23;20169;-83
2021/03/07 00:02:53;;;;;;;7.55;6.90;;;;;;;;;;6237453;23;20142;-83
2021/03/07 00:05:19;;;;;;;7.10;5.47;;;;;;;;;;6262789;23;20150;-83
2021/03/07 00:07:46;;;;;;;6.30;5.70;;;;;;;;;;6260422;22;20220;-84
2021/03/07 00:10:13;;;;;;;7.10;6.50;;;;;;;;;;6259652;23;20160;-83
2021/03/07 00:12:39;;;;;;;6.57;5.97;;;;;;;;;;6234366;23;20145;-82
2021/03/07 00:15:06;;;;;;;8.82;6.13;;;;;;;;;;6260349;23;20142;-83
2021/03/07 00:17:32;;;;;;;8.45;7.63;;;;;;;;;;6258787;22;20165;-82
2021/03/07 00:19:58;;;;;;;7.32;6.70;;;;;;;;;;6231871;23;20164;-83
2021/03/07 00:22:25;;;;;;;7.20;6.30;;;;;;;;;;6257123;23;20173;-83
2021/03/07 00:24:51;;;;;;;6.13;5.50;;;;;;;;;;6235060;23;20146;-83
2021/03/07 00:27:17;;;;;;;6.15;5.65;;;;;;;;;;6261221;22;20182;-83
2021/03/07 00:29:43;;;;;;;8.13;7.30;;;;;;;;;;6270920;23;20162;-83
2021/03/07 00:32:09;;;;;;;7.30;6.60;;;;;;;;;;6245527;23;20192;-83
2021/03/07 00:34:35;;;;;;;5.90;5.40;;;;;;;;;;6270456;23;20130;-83
2021/03/07 00:37:01;;;;;;;6.53;5.60;;;;;;;;;;6271470;22;20176;-82
2021/03/07 00:39:30;;;;;;;7.07;6.47;;;;;;;;;;6269610;23;20146;-82
2021/03/07 00:41:56;;;;;;;10.30;6.47;;;;;;;;;;6271342;23;20188;-83
2021/03/07 00:44:22;;;;;;;8.27;7.47;;;;;;;;;;6239989;23;20615;-84
2021/03/07 00:46:48;;;;;;;6.28;5.68;;;;;;;;;;6231916;23;20181;-83
2021/03/07 00:49:19;;;;;;;6.85;5.53;;;;;;;;;;6231261;23;20150;-83
2021/03/07 00:51:46;;;;;;;7.05;6.55;;;;;;;;;;6231032;23;20150;-83
2021/03/07 00:54:12;;;;;;;7.55;6.85;;;;;;;;;;6258352;23;20605;-83
2021/03/07 00:56:39;;;;;;;9.68;8.45;;;;;;;;;;6258346;22;20162;-83
2021/03/07 00:59:05;;;;;;;6.90;5.57;;;;;;;;;;6265548;23;20162;-83
2021/03/07 01:01:31;;;;;;;9.32;8.43;;;;;;;;;;6264983;23;20157;-83
2021/03/07 01:03:57;;;;;;;8.63;6.72;;;;;;;;;;6264099;23;20150;-83
2021/03/07 01:06:23;;;;;;;7.72;6.45;;;;;;;;;;6233995;23;20192;-84
2021/03/07 01:08:49;;;;;;;10.02;9.13;;;;;;;;;;6235299;23;20138;-84
2021/03/07 01:11:15;;;;;;;8.77;7.78;;;;;;;;;;6244980;23;20153;-82
2021/03/07 01:13:41;;;;;;;9.27;7.75;;;;;;;;;;6273810;22;20137;-83
2021/03/07 01:16:07;;;;;;;7.57;6.97;;;;;;;;;;6246796;23;20189;-82
2021/03/07 01:18:33;;;;;;;7.65;6.95;;;;;;;;;;6247016;23;20205;-83
2021/03/07 01:20:59;;;;;;;8.57;7.50;;;;;;;;;;6265941;23;20213;-82
2021/03/07 01:23:26;;;;;;;9.68;8.65;;;;;;;;;;6273720;22;20161;-82
2021/03/07 01:25:52;;;;;;;9.77;8.63;;;;;;;;;;6247555;22;20145;-82
2021/03/07 01:28:18;;;;;;;8.50;7.60;;;;;;;;;;6273973;23;20149;-82
2021/03/07 01:30:44;;;;;;;8.52;6.50;;;;;;;;;;6272611;23;20161;-83
2021/03/07 01:33:11;;;;;;;9.57;8.65;;;;;;;;;;6274558;22;20161;-83
2021/03/07 01:35:37;;;;;;;10.95;9.20;;;;;;;;;;6273605;22;20146;-83
2021/03/07 01:38:03;;;;;;;10.63;9.63;;;;;;;;;;6273295;22;20150;-82
2021/03/07 01:40:35;;;;;;;7.15;6.57;;;;;;;;;;6272977;22;20134;-83
2021/03/07 01:43:02;;;;;;;9.30;8.40;;;;;;;;;;6273114;22;20192;-81
2021/03/07 01:45:29;;;;;;;8.30;7.60;;;;;;;;;;6262550;23;20142;-82
2021/03/07 01:47:56;;;;;;;10.30;8.43;;;;;;;;;;6256505;22;20174;-82
2021/03/07 01:50:23;;;;;;;8.13;7.32;;;;;;;;;;6256193;23;20169;-82
2021/03/07 01:52:50;;;;;;;9.88;8.50;;;;;;;;;;6229162;23;20150;-82
2021/03/07 01:55:17;;;;;;;8.63;7.72;;;;;;;;;;6256457;23;20149;-83
2021/03/07 01:57:43;;;;;;;7.43;6.65;;;;;;;;;;6254776;22;20222;-83
2021/03/07 02:00:13;;;;;;;8.15;6.82;;;;;;;;;;6229413;23;20177;-82
2021/03/07 02:02:40;;;;;;;11.10;8.82;;;;;;;;;;6256247;23;20572;-82
2021/03/07 02:05:07;;;;;;;7.72;6.88;;;;;;;;;;6255696;23;20138;-83
2021/03/07 02:07:34;;;;;;;12.32;7.22;;;;;;;;;;6256377;22;20612;-82
2021/03/07 02:10:00;;;;;;;8.27;7.53;;;;;;;;;;6257874;23;20142;-83
2021/03/07 02:12:26;;;;;;;6.57;5.88;;;;;;;;;;6255733;23;20142;-82
2021/03/07 02:14:54;;;;;;;11.50;6.22;;;;;;;;;;6255440;23;20130;-82
2021/03/07 02:17:21;;;;;;;5.72;4.53;;;;;;;;;;6255591;22;20165;-82
2021/03/07 02:19:48;;;;;;;5.82;5.35;;;;;;;;;;6254524;23;20217;-82
2021/03/07 02:22:17;;;;;;;5.85;5.22;;;;;;;;;;6228603;23;20627;-83
2021/03/07 02:24:43;;;;;;;6.82;5.35;;;;;;;;;;6255801;23;20475;-82
2021/03/07 02:27:09;;;;;;;4.93;4.45;;;;;;;;;;6254552;22;20154;-83
2021/03/07 02:29:36;;;;;;;4.38;4.07;;;;;;;;;;6257283;23;20142;-83
2021/03/07 02:32:05;;;;;;;3.92;3.60;;;;;;;;;;6257468;23;20229;-82
2021/03/07 02:34:33;;;;;;;4.20;3.80;;;;;;;;;;6256824;23;20150;-83
2021/03/07 02:37:03;;;;;;;3.55;3.25;;;;;;;;;;6259196;22;20235;-82
2021/03/07 02:39:32;;;;;;;6.95;3.22;;;;;;;;;;6261086;23;20134;-82
2021/03/07 02:42:18;;;;;;;4.90;2.60;;;;;;;;;;6266063;23;20168;-81
2021/03/07 02:44:47;;;;;;;2.38;1.85;;;;;;;;;;6228439;23;20166;-81
2021/03/07 02:47:14;;;;;;;4.68;2.58;;;;;;;;;;6267423;22;20157;-82
2021/03/07 02:49:42;;;;;;;5.65;1.95;;;;;;;;;;6259215;23;20576;-83
2021/03/07 02:52:08;;;;;;;2.83;2.63;;;;;;;;;;6260087;23;20142;-83
2021/03/07 02:54:37;;;;;;;5.07;3.13;;;;;;;;;;6230525;23;20158;-83
2021/03/07 02:57:03;;;;;;;3.33;3.03;;;;;;;;;;6258932;22;20210;-83
2021/03/07 02:59:30;;;;;;;3.05;2.60;;;;;;;;;;6231274;23;20177;-83
2021/03/07 03:01:57;;;;;;;2.78;2.58;;;;;;;;;;6259747;23;20252;-82
2021/03/07 03:04:24;;;;;;;2.50;2.30;;;;;;;;;;6260680;23;20149;-82
2021/03/07 03:06:50;;;;;;;2.35;2.15;;;;;;;;;;6261713;22;20158;-82
2021/03/07 03:09:17;;;;;;;2.55;1.95;;;;;;;;;;6233293;23;20150;-82
2021/03/07 03:11:43;;;;;;;2.33;2.10;;;;;;;;;;6235127;23;20249;-82
2021/03/07 03:14:12;;;;;;;5.53;2.88;;;;;;;;;;6260179;23;20221;-82
2021/03/07 03:16:39;;;;;;;4.13;2.10;;;;;;;;;;6260072;22;20166;-82
2021/03/07 03:19:06;;;;;;;2.42;2.10;;;;;;;;;;6230418;23;20221;-82
2021/03/07 03:21:32;;;;;;;2.10;1.92;;;;;;;;;;6257213;23;20468;-82
2021/03/07 03:23:59;;;;;;;2.40;2.05;;;;;;;;;;6230933;23;20146;-83
2021/03/07 03:26:26;;;;;;;3.10;2.22;;;;;;;;;;6231695;23;20169;-83
2021/03/07 03:28:54;;;;;;;3.97;2.45;;;;;;;;;;6231508;23;20224;-83
2021/03/07 03:31:20;;;;;;;2.22;2.03;;;;;;;;;;6258627;23;20196;-82
2021/03/07 03:33:47;;;;;;;2.50;2.30;;;;;;;;;;6268866;23;20180;-81
2021/03/07 03:36:13;;;;;;;5.85;2.53;;;;;;;;;;6270645;22;20150;-82
2021/03/07 03:38:46;;;;;;;3.53;2.45;;;;;;;;;;6271102;23;20142;-81
2021/03/07 03:41:12;;;;;;;5.47;2.70;;;;;;;;;;6270856;23;20161;-82
2021/03/07 03:43:40;;;;;;;3.38;2.85;;;;;;;;;;6244334;23;20161;-81
2021/03/07 03:49:05;;;;;;;5.18;2.92;;;;;;;;;;6207656;23;20155;-84
2021/03/07 03:51:35;;;;;;;3.20;2.72;;;;;;;;;;6210068;23;20163;-81
2021/03/07 03:54:02;;;;;;;7.07;2.78;;;;;;;;;;6207099;23;20135;-84
2021/03/07 03:56:28;;;;;;;5.10;2.92;;;;;;;;;;6202451;23;20300;-85
2021/03/07 03:58:57;;;;;;;3.75;3.47;;;;;;;;;;6225300;23;20147;-83
2021/03/07 04:01:23;;;;;;;4.05;2.92;;;;;;;;;;6221924;23;20200;-85
2021/03/07 04:03:54;;;;;;;6.60;3.25;;;;;;;;;;6223073;23;20298;-82
2021/03/07 04:06:24;;;;;;;5.80;4.25;;;;;;;;;;6197118;23;20201;-85
2021/03/07 04:08:54;;;;;;;3.40;2.88;;;;;;;;;;6223716;23;20154;-83
2021/03/07 04:11:26;;;;;;;7.22;2.72;;;;;;;;;;6223269;23;20136;-85
2021/03/07 04:14:02;;;;;;;7.50;4.25;;;;;;;;;;6222926;23;20211;-84
2021/03/07 04:16:32;;;;;;;4.13;3.08;;;;;;;;;;6224748;23;20163;-84
2021/03/07 04:19:09;;;;;;;;;;;;;;;;;;;;;
2021/03/07 04:21:42;;;;;;;4.25;3.85;;;;;;;;;;6224625;23;20171;-84
2021/03/07 04:24:25;;;;;;;;;;;;;;;;;;;;;
2021/03/07 04:27:01;;;;;;;4.75;3.63;;;;;;;;;;6200692;23;20190;-84
2021/03/07 04:29:32;;;;;;;3.40;3.10;;;;;;;;;;6224681;23;20225;-83
2021/03/07 04:32:02;;;;;;;3.35;3.05;;;;;;;;;;6225134;23;20138;-84
2021/03/07 04:34:32;;;;;;;3.65;3.35;;;;;;;;;;6201056;23;20161;-83
2021/03/07 04:36:58;;;;;;;4.65;3.75;;;;;;;;;;6204614;23;20714;-83
2021/03/07 04:39:30;;;;;;;4.80;3.22;;;;;;;;;;6234402;23;20208;-84
2021/03/07 04:41:57;;;;;;;7.30;3.83;;;;;;;;;;6228530;23;20712;-84
2021/03/07 04:44:27;;;;;;;4.32;3.90;;;;;;;;;;6229275;23;20124;-85
2021/03/07 04:46:54;;;;;;;2.80;2.55;;;;;;;;;;6201115;23;20198;-85
2021/03/07 04:49:20;;;;;;;7.20;4.03;;;;;;;;;;6201214;23;20154;-85
2021/03/07 04:51:50;;;;;;;4.95;3.25;;;;;;;;;;6225324;23;20159;-84
2021/03/07 04:54:20;;;;;;;3.10;2.90;;;;;;;;;;6224485;23;20162;-85
2021/03/07 04:56:47;;;;;;;3.67;3.03;;;;;;;;;;6225466;23;20183;-84
2021/03/07 04:59:19;;;;;;;7.07;3.72;;;;;;;;;;6229098;22;20139;-85
2021/03/07 05:02:11;;;;;;;5.15;3.55;;;;;;;;;;6180790;23;20208;-85
2021/03/07 05:04:44;;;;;;;5.70;2.72;;;;;;;;;;6227392;23;20147;-84
2021/03/07 05:07:14;;;;;;;3.17;2.70;;;;;;;;;;6227084;23;20168;-85
2021/03/07 05:09:50;;;;;;;5.22;4.22;;;;;;;;;;6227091;23;20138;-83
2021/03/07 05:12:16;;;;;;;5.18;3.65;;;;;;;;;;6201364;23;20537;-84
2021/03/07 05:14:51;;;;;;;4.47;3.75;;;;;;;;;;6225569;23;20151;-83
2021/03/07 05:17:31;;;;;;;;;;;;;;;;;;;;;
2021/03/07 05:20:04;;;;;;;4.70;3.30;;;;;;;;;;6202989;23;20135;-83
2021/03/07 05:22:50;;;;;;;6.90;4.05;;;;;;;;;;6225525;23;20163;-84
2021/03/07 05:25:21;;;;;;;3.78;2.78;;;;;;;;;;6228727;23;20151;-84
2021/03/07 05:28:01;;;;;;;4.53;3.08;;;;;;;;;;6228033;23;20171;-84
2021/03/07 05:30:31;;;;;;;5.45;3.63;;;;;;;;;;6201279;23;20174;-84
2021/03/07 05:32:58;;;;;;;5.07;3.13;;;;;;;;;;6223372;23;20209;-82
2021/03/07 05:35:25;;;;;;;7.15;3.35;;;;;;;;;;6233132;23;20148;-83
2021/03/07 05:38:15;;;;;;;4.45;3.10;;;;;;;;;;6203031;23;20178;-84
2021/03/07 05:40:45;;;;;;;3.70;3.40;;;;;;;;;;6224555;23;20151;-85
2021/03/07 05:43:20;;;;;;;5.10;3.25;;;;;;;;;;6223124;23;20155;-85
2021/03/07 05:45:47;;;;;;;4.47;4.03;;;;;;;;;;6198757;23;20170;-83
2021/03/07 05:48:29;;;;;;;3.17;2.88;;;;;;;;;;6219530;23;20198;-84
2021/03/07 05:51:01;;;;;;;3.55;3.22;;;;;;;;;;6171945;23;20209;-84
2021/03/07 05:53:32;;;;;;;3.10;2.65;;;;;;;;;;6197485;23;20197;-85
2021/03/07 05:56:02;;;;;;;3.28;2.42;;;;;;;;;;6201878;23;20151;-83
2021/03/07 05:58:32;;;;;;;3.50;3.00;;;;;;;;;;6228834;23;20175;-82
2021/03/07 06:01:01;;;;;;;2.92;2.63;;;;;;;;;;6226180;23;20473;-83
2021/03/07 06:03:30;;;;;;;4.43;3.25;;;;;;;;;;6196137;23;20174;-83
2021/03/07 06:06:09;;;;;;;6.18;3.30;;;;;;;;;;6221932;23;20613;-83
2021/03/07 06:08:43;;;;;;;3.10;2.60;;;;;;;;;;6222239;23;20511;-83
2021/03/07 06:11:31;;;;;;;4.47;3.33;;;;;;;;;;6196161;23;20170;-84
2021/03/07 06:14:03;;;;;;;5.30;3.03;;;;;;;;;;6221706;23;20131;-84
2021/03/07 06:16:56;;;;;;;3.35;2.38;;;;;;;;;;6223468;23;20170;-84
2021/03/07 06:19:23;;;;;;;3.30;2.78;;;;;;;;;;6225594;23;20198;-85
2021/03/07 06:21:52;;;;;;;2.70;2.50;;;;;;;;;;6201582;23;20242;-84
2021/03/07 06:24:38;;;;;;;4.60;3.55;;;;;;;;;;6225365;23;20219;-84
2021/03/07 06:27:06;;;;;;;2.83;2.63;;;;;;;;;;6201304;23;20174;-84
2021/03/07 06:29:52;;;;;;;3.20;2.78;;;;;;;;;;6227481;23;20230;-84
2021/03/07 06:32:31;;;;;;;3.17;2.55;;;;;;;;;;6209666;23;20158;-84
2021/03/07 06:35:02;;;;;;;3.97;3.08;;;;;;;;;;6231009;23;20151;-81
2021/03/07 06:37:32;;;;;;;7.88;3.25;;;;;;;;;;6183133;23;20179;-84
2021/03/07 06:40:21;;;;;;;3.22;2.92;;;;;;;;;;6197656;23;20206;-84
2021/03/07 06:42:50;;;;;;;4.32;3.05;;;;;;;;;;6199216;23;20171;-85
2021/03/07 06:45:37;;;;;;;2.88;2.67;;;;;;;;;;6201282;23;20177;-84
2021/03/07 06:48:10;;;;;;;4.10;2.80;;;;;;;;;;6202687;23;20205;-83
2021/03/07 06:50:56;;;;;;;9.23;3.50;;;;;;;;;;6225214;23;20147;-85
2021/03/07 06:53:35;;;;;;;4.95;2.63;;;;;;;;;;6199908;23;20143;-84
2021/03/07 06:56:03;;;;;;;4.07;3.72;;;;;;;;;;6205005;23;20170;-84
2021/03/07 06:58:32;;;;;;;2.95;2.65;;;;;;;;;;6201509;23;20170;-84
2021/03/07 07:01:16;;;;;;;3.13;2.35;;;;;;;;;;6231490;23;20174;-85
2021/03/07 07:03:58;;;;;;;3.00;2.60;;;;;;;;;;6231841;23;20128;-84
2021/03/07 07:06:42;;;;;;;2.92;2.33;;;;;;;;;;6224385;23;20167;-85
2021/03/07 07:09:26;;;;;;;3.05;2.53;;;;;;;;;;6201954;23;20128;-84
2021/03/07 07:12:11;;;;;;;;;;;;;;;;;;;;;
2021/03/07 07:14:45;;;;;;;3.75;3.35;;;;;;;;;;6227935;23;20209;-85
2021/03/07 07:17:25;;;;;;;;;;;;;;;;;;;;;
2021/03/07 07:19:51;;;;;;;3.35;3.05;;;;;;;;;;6202754;23;20155;-84
2021/03/07 07:22:21;;;;;;;3.60;2.90;;;;;;;;;;6227513;23;20190;-85
2021/03/07 07:24:50;;;;;;;4.38;3.30;;;;;;;;;;6202922;23;20151;-84
2021/03/07 07:27:22;;;;;;;2.58;2.38;;;;;;;;;;6226346;23;20167;-85
2021/03/07 07:29:51;;;;;;;2.92;2.70;;;;;;;;;;6201379;23;20205;-85
2021/03/07 07:32:29;;;;;;;4.88;2.75;;;;;;;;;;6226788;23;20151;-84
2021/03/07 07:34:58;;;;;;;3.50;2.90;;;;;;;;;;6204428;23;20139;-84
2021/03/07 07:37:40;;;;;;;2.35;2.13;;;;;;;;;;6234203;23;20171;-83
2021/03/07 07:40:07;;;;;;;4.03;2.60;;;;;;;;;;6229678;23;20162;-85
2021/03/07 07:42:37;;;;;;;2.55;2.35;;;;;;;;;;6202924;23;20187;-84
2021/03/07 07:45:11;;;;;;;2.60;1.70;;;;;;;;;;6203651;23;20153;-84
2021/03/07 07:47:44;;;;;;;3.80;2.50;;;;;;;;;;6202704;23;20179;-83
2021/03/07 07:50:30;;;;;;;3.15;2.33;;;;;;;;;;6228292;23;20230;-84
2021/03/07 07:52:57;;;;;;;3.88;2.70;;;;;;;;;;6227967;23;20151;-84
2021/03/07 07:56:00;;;;;;;4.15;3.80;;;;;;;;;;6179958;23;20148;-84
2021/03/07 07:58:43;;;;;;;3.80;2.92;;;;;;;;;;6229984;23;20235;-84
2021/03/07 08:01:16;;;;;;;3.55;2.83;;;;;;;;;;6230924;23;20155;-84
2021/03/07 08:03:49;;;;;;;3.53;3.33;;;;;;;;;;6228120;23;20142;-82
2021/03/07 08:06:21;;;;;;;4.65;2.65;;;;;;;;;;6203822;23;20474;-84
2021/03/07 08:08:48;;;;;;;4.28;3.03;;;;;;;;;;6229326;23;20139;-83
2021/03/07 08:11:23;;;;;;;3.75;3.08;;;;;;;;;;6228936;23;20151;-84
2021/03/07 08:13:50;;;;;;;3.25;2.95;;;;;;;;;;6203374;23;20151;-84
2021/03/07 08:16:41;;;;;;;3.22;2.92;;;;;;;;;;6205420;23;20142;-84
2021/03/07 08:19:12;;;;;;;3.03;2.50;;;;;;;;;;6205494;23;20175;-84
2021/03/07 08:22:00;;;;;;;3.30;2.63;;;;;;;;;;6206020;23;20170;-84
2021/03/07 08:24:49;;;;;;;3.50;2.72;;;;;;;;;;6225195;23;20171;-84
2021/03/07 08:27:39;;;;;;;6.28;3.25;;;;;;;;;;6229892;23;20194;-83
2021/03/07 08:30:26;;;;;;;;;;;;;;;;;;;;;
2021/03/07 08:33:05;;;;;;;;;;;;;;;;;;;;;
2021/03/07 08:35:36;;;;;;;4.57;2.92;;;;;;;;;;6179353;23;20139;-82
2021/03/07 08:38:13;;;;;;;7.82;3.17;;;;;;;;;;6229119;23;20167;-83
2021/03/07 08:40:43;;;;;;;5.45;3.53;;;;;;;;;;6226964;23;20147;-84
2021/03/07 08:43:27;;;;;;;5.18;3.40;;;;;;;;;;6178299;23;20143;-84
2021/03/07 08:46:21;;;;;;;2.92;2.63;;;;;;;;;;6202393;23;20194;-84
2021/03/07 08:49:10;;;;;;;4.80;2.97;;;;;;;;;;6227009;23;20136;-85
2021/03/07 08:51:46;;;;;;;5.05;2.83;;;;;;;;;;6226599;23;20147;-84
2021/03/07 08:54:29;;;;;;;2.45;2.25;;;;;;;;;;6225700;23;20146;-84
2021/03/07 08:57:04;;;;;;;5.35;3.92;;;;;;;;;;6225130;23;20162;-84
2021/03/07 08:59:44;;;;;;;3.08;2.67;;;;;;;;;;6224553;23;20131;-83
2021/03/07 09:02:13;;;;;;;2.22;2.03;;;;;;;;;;6225690;23;20167;-85
2021/03/07 09:04:41;;;;;;;5.53;2.60;;;;;;;;;;6225272;23;20514;-83
2021/03/07 09:07:29;;;;;;;4.93;2.35;;;;;;;;;;6203782;23;20163;-84
2021/03/07 09:09:57;;;;;;;2.63;2.42;;;;;;;;;;6231500;23;20213;-84
2021/03/07 09:12:37;;;;;;;5.35;3.80;;;;;;;;;;6226611;23;20469;-85
2021/03/07 09:15:08;;;;;;;3.20;2.90;;;;;;;;;;6203453;23;20167;-84
2021/03/07 09:17:42;;;;;;;5.30;2.80;;;;;;;;;;6226202;23;20190;-85
2021/03/07 09:20:14;;;;;;;3.67;3.38;;;;;;;;;;6226440;23;20151;-83
2021/03/07 09:22:46;;;;;;;3.55;3.25;;;;;;;;;;6228314;23;20205;-85
2021/03/07 09:25:16;;;;;;;2.80;2.42;;;;;;;;;;6228489;23;20151;-86
2021/03/07 09:27:45;;;;;;;4.68;4.28;;;;;;;;;;6203286;23;20241;-85
2021/03/07 09:30:16;;;;;;;3.33;3.03;;;;;;;;;;6180120;23;20143;-84
2021/03/07 09:32:44;;;;;;;3.70;2.65;;;;;;;;;;6231951;23;20167;-84
2021/03/07 09:35:19;;;;;;;5.00;4.50;;;;;;;;;;6230957;23;20210;-83
2021/03/07 09:38:03;;;;;;;7.57;3.25;;;;;;;;;;6231782;23;20302;-84
2021/03/07 09:40:38;;;;;;;4.57;4.18;;;;;;;;;;6228427;23;20155;-83
2021/03/07 09:43:07;;;;;;;6.15;3.25;;;;;;;;;;6225053;23;20234;-85
2021/03/07 09:45:37;;;;;;;4.38;3.97;;;;;;;;;;6226221;23;20198;-83
2021/03/07 09:48:04;;;;;;;4.38;3.30;;;;;;;;;;6226775;22;20577;-81
2021/03/07 09:50:30;;;;;;;4.35;3.88;;;;;;;;;;6225664;23;20454;-82
2021/03/07 09:52:57;;;;;;;4.53;4.00;;;;;;;;;;6224228;23;20151;-82
2021/03/07 09:55:26;;;;;;;8.75;5.50;;;;;;;;;;6199246;23;20698;-83
2021/03/07 09:58:01;;;;;;;5.55;5.05;;;;;;;;;;6223215;23;20228;-82
2021/03/07 10:00:30;;;;;;;4.95;4.50;;;;;;;;;;6197852;23;20151;-83
2021/03/07 10:02:57;;;;;;;6.93;4.15;;;;;;;;;;6224216;23;20162;-82
2021/03/07 10:05:23;;;;;;;5.10;3.50;;;;;;;;;;6223608;23;20216;-83
2021/03/07 10:07:49;;;;;;;5.07;4.57;;;;;;;;;;6223513;23;20458;-83
2021/03/07 10:10:23;;;;;;;4.07;3.67;;;;;;;;;;6224310;23;20564;-83
2021/03/07 10:12:57;;;;;;;6.40;4.65;;;;;;;;;;6226701;23;20130;-83
2021/03/07 10:15:30;;;;;;;9.60;3.90;;;;;;;;;;6226861;23;20370;-83
2021/03/07 10:17:57;;;;;;;4.80;4.43;;;;;;;;;;6229192;23;20625;-82
2021/03/07 10:20:23;;;;;;;5.85;4.43;;;;;;;;;;6225144;23;20143;-83
2021/03/07 10:22:50;;;;;;;3.88;3.55;;;;;;;;;;6198359;23;20499;-82
2021/03/07 10:25:22;;;;;;;3.90;3.63;;;;;;;;;;6222706;23;20157;-82
2021/03/07 10:27:56;;;;;;;5.00;4.50;;;;;;;;;;6224460;23;20159;-82
2021/03/07 10:30:32;;;;;;;5.28;3.90;;;;;;;;;;6200489;23;20149;-82
2021/03/07 10:33:06;;;;;;;7.88;4.50;;;;;;;;;;6205290;23;20130;-81
2021/03/07 10:35:35;;;;;;;4.88;4.30;;;;;;;;;;6226084;23;20143;-83
2021/03/07 10:38:01;;;;;;;7.55;4.25;;;;;;;;;;6200723;23;20170;-83
2021/03/07 10:40:36;;;;;;;4.00;3.70;;;;;;;;;;6227265;23;20143;-83
2021/03/07 10:43:03;;;;;;;14.05;5.63;;;;;;;;;;6205227;23;20142;-84
2021/03/07 10:45:40;;;;;;;5.53;5.03;;;;;;;;;;6210912;23;20182;-83
2021/03/07 10:48:11;;;;;;;5.38;4.70;;;;;;;;;;6249459;23;20184;-82
2021/03/07 10:50:41;;;;;;;5.50;4.07;;;;;;;;;;6248966;22;20134;-79
2021/03/07 10:53:07;;;;;;;6.88;5.05;;;;;;;;;;6250460;22;20156;-84
2021/03/07 10:55:33;;;;;;;6.60;5.07;;;;;;;;;;6225564;22;20202;-83
2021/03/07 10:58:00;;;;;;;7.13;5.55;;;;;;;;;;6250540;22;20206;-81
2021/03/07 11:00:32;;;;;;;4.75;3.90;;;;;;;;;;6250518;22;20200;-84
2021/03/07 11:03:03;;;;;;;5.80;4.82;;;;;;;;;;6276359;22;20229;-83
2021/03/07 11:05:30;;;;;;;6.20;5.68;;;;;;;;;;6224432;23;20126;-80
2021/03/07 11:07:56;;;;;;;5.50;5.00;;;;;;;;;;6249221;23;20146;-82
2021/03/07 11:10:22;;;;;;;5.15;4.75;;;;;;;;;;6220372;23;20158;-82
2021/03/07 11:13:01;;;;;;;21.45;5.65;;;;;;;;;;6207762;23;20177;-82
2021/03/07 11:15:27;;;;;;;6.30;5.70;;;;;;;;;;6233725;23;20184;-82
2021/03/07 11:17:56;;;;;;;5.63;5.13;;;;;;;;;;6236716;23;20174;-83
2021/03/07 11:20:22;;;;;;;6.05;5.10;;;;;;;;;;6236939;23;20138;-82
2021/03/07 11:22:48;;;;;;;9.32;6.05;;;;;;;;;;6262780;23;20165;-83
2021/03/07 11:25:14;;;;;;;5.80;5.13;;;;;;;;;;6234816;23;20162;-82
2021/03/07 11:27:40;;;;;;;5.50;4.47;;;;;;;;;;6261343;22;20632;-83
2021/03/07 11:30:08;;;;;;;6.28;5.18;;;;;;;;;;6235408;23;20191;-81
2021/03/07 11:32:34;;;;;;;10.18;8.52;;;;;;;;;;6210022;23;20484;-83
2021/03/07 11:35:00;;;;;;;6.85;6.20;;;;;;;;;;6235630;23;20153;-82
2021/03/07 11:37:29;;;;;;;9.02;5.45;;;;;;;;;;6211011;23;20169;-82
2021/03/07 11:39:55;;;;;;;6.45;5.40;;;;;;;;;;6235571;23;20150;-82
2021/03/07 11:42:21;;;;;;;6.85;5.60;;;;;;;;;;6237035;23;20542;-83
2021/03/07 11:44:58;;;;;;;5.65;4.72;;;;;;;;;;6239265;23;20591;-82
2021/03/07 11:47:34;;;;;;;;;;;;;;;;;;;;;
2021/03/07 11:50:01;;;;;;;9.52;5.22;;;;;;;;;;6273471;23;20125;-83
2021/03/07 11:52:27;;;;;;;11.52;10.18;;;;;;;;;;6273840;22;20182;-83
2021/03/07 11:54:53;;;;;;;6.75;5.95;;;;;;;;;;6271217;23;20168;-84
2021/03/07 11:57:19;;;;;;;6.68;4.93;;;;;;;;;;6236936;23;20162;-83
2021/03/07 11:59:45;;;;;;;5.60;5.10;;;;;;;;;;6239998;23;20197;-83
2021/03/07 12:02:11;;;;;;;13.40;5.15;;;;;;;;;;6265080;23;20232;-83
2021/03/07 12:04:37;;;;;;;8.95;4.95;;;;;;;;;;6241151;23;20142;-83
2021/03/07 12:07:04;;;;;;;5.78;5.07;;;;;;;;;;6267103;22;20142;-82
2021/03/07 12:09:30;;;;;;;5.32;4.93;;;;;;;;;;6267541;23;20138;-82
2021/03/07 12:11:56;;;;;;;9.38;6.03;;;;;;;;;;6241092;23;20201;-83
2021/03/07 12:14:22;;;;;;;6.70;6.00;;;;;;;;;;6267315;23;20162;-84
2021/03/07 12:16:48;;;;;;;9.52;5.97;;;;;;;;;;6236182;23;20219;-84
2021/03/07 12:19:16;;;;;;;6.88;6.15;;;;;;;;;;6234073;23;20162;-83
2021/03/07 12:21:42;;;;;;;7.13;6.50;;;;;;;;;;6203008;23;20604;-83
2021/03/07 12:24:09;;;;;;;6.30;5.78;;;;;;;;;;6203603;23;20234;-84
2021/03/07 12:26:35;;;;;;;11.40;4.93;;;;;;;;;;6232017;23;20142;-82
2021/03/07 12:29:01;;;;;;;7.45;6.75;;;;;;;;;;6205237;23;20170;-84
2021/03/07 12:31:28;;;;;;;7.75;6.32;;;;;;;;;;6232724;22;20138;-84
2021/03/07 12:34:11;;;;;;;6.68;5.97;;;;;;;;;;6249350;22;20130;-83
2021/03/07 12:36:38;;;;;;;7.40;6.38;;;;;;;;;;6275265;22;20129;-84
2021/03/07 12:39:04;;;;;;;8.45;6.60;;;;;;;;;;6248679;22;20142;-83
2021/03/07 12:41:33;;;;;;;14.93;6.60;;;;;;;;;;6231358;23;20173;-84
2021/03/07 12:44:00;;;;;;;9.23;5.88;;;;;;;;;;6255572;23;20142;-83
2021/03/07 12:46:29;;;;;;;9.40;6.10;;;;;;;;;;6230533;23;20217;-82
2021/03/07 12:48:55;;;;;;;5.75;5.28;;;;;;;;;;6204985;23;20615;-83
2021/03/07 12:51:24;;;;;;;7.85;5.70;;;;;;;;;;6204012;23;20167;-83
2021/03/07 12:53:51;;;;;;;6.88;5.85;;;;;;;;;;6228659;23;20264;-83
2021/03/07 12:59:15;;;;;;;13.23;6.50;;;;;;;;;;6216120;23;20249;-84
2021/03/07 13:02:02;;;;;;;5.32;4.82;;;;;;;;;;6256335;23;20177;-84
2021/03/07 13:04:39;;;;;;;8.80;5.90;;;;;;;;;;6257740;23;20225;-85
2021/03/07 13:07:26;;;;;;;6.72;5.47;;;;;;;;;;6230405;22;20122;-84
2021/03/07 13:10:16;;;;;;;7.72;4.57;;;;;;;;;;6196365;23;20151;-84
2021/03/07 13:13:03;;;;;;;12.02;7.78;;;;;;;;;;6198370;23;20153;-83
2021/03/07 13:15:42;;;;;;;;;;;;;;;;;;;;;
2021/03/07 13:18:35;;;;;;;6.88;6.18;;;;;;;;;;6227859;23;20181;-84
2021/03/07 13:21:03;;;;;;;11.95;7.20;;;;;;;;;;6201627;23;20155;-82
2021/03/07 13:23:31;;;;;;;6.55;5.63;;;;;;;;;;6201227;23;20139;-83
2021/03/07 13:26:04;;;;;;;6.90;5.80;;;;;;;;;;6202768;23;20146;-84
2021/03/07 13:28:33;;;;;;;6.88;6.20;;;;;;;;;;6204287;23;20522;-82
2021/03/07 13:31:00;;;;;;;6.90;5.93;;;;;;;;;;6178470;23;20180;-84
2021/03/07 13:33:36;;;;;;;;;;;;;;;;;;;;;
2021/03/07 13:36:11;;;;;;;7.72;4.75;;;;;;;;;;6242518;22;20134;-83
2021/03/07 13:38:42;;;;;;;10.35;6.38;;;;;;;;;;6239389;23;20146;-84
2021/03/07 13:41:12;;;;;;;7.45;5.10;;;;;;;;;;6174243;23;20194;-85
2021/03/07 13:43:41;;;;;;;8.13;4.82;;;;;;;;;;6224846;23;20170;-84
2021/03/07 13:46:11;;;;;;;6.20;5.00;;;;;;;;;;6174253;23;20135;-82
2021/03/07 13:48:38;;;;;;;4.40;4.00;;;;;;;;;;6198099;23;20182;-83
2021/03/07 13:51:04;;;;;;;6.05;4.50;;;;;;;;;;6171804;23;20151;-84
2021/03/07 13:53:35;;;;;;;3.58;3.28;;;;;;;;;;6172682;23;20159;-83
2021/03/07 13:56:01;;;;;;;5.78;4.60;;;;;;;;;;6222866;23;20201;-83
2021/03/07 13:58:28;;;;;;;5.45;4.22;;;;;;;;;;6171502;23;20174;-82
2021/03/07 14:00:54;;;;;;;12.30;4.60;;;;;;;;;;6196688;23;20150;-84
2021/03/07 14:03:21;;;;;;;6.90;3.88;;;;;;;;;;6197773;23;20174;-82
2021/03/07 14:05:50;;;;;;;5.82;3.80;;;;;;;;;;6172645;23;20147;-83
2021/03/07 14:08:17;;;;;;;4.78;3.72;;;;;;;;;;6198649;23;20229;-84
2021/03/07 14:10:43;;;;;;;6.38;4.30;;;;;;;;;;6206680;23;20209;-84
2021/03/07 14:13:09;;;;;;;5.35;3.50;;;;;;;;;;6243020;22;20130;-84
2021/03/07 14:15:35;;;;;;;5.68;4.78;;;;;;;;;;6217540;22;20203;-85
2021/03/07 14:18:02;;;;;;;5.10;4.60;;;;;;;;;;6242446;22;20202;-84
2021/03/07 14:20:28;;;;;;;4.78;4.35;;;;;;;;;;6203887;23;20146;-84
2021/03/07 14:23:01;;;;;;;4.72;4.07;;;;;;;;;;6228810;23;20170;-84
2021/03/07 14:25:53;;;;;;;5.97;3.65;;;;;;;;;;6229799;23;20165;-84
2021/03/07 14:28:31;;;;;;;4.95;4.43;;;;;;;;;;6202172;23;20504;-83
2021/03/07 14:31:04;;;;;;;5.07;3.50;;;;;;;;;;6225505;23;20157;-84
2021/03/07 14:33:30;;;;;;;4.05;3.75;;;;;;;;;;6198655;23;20142;-83
2021/03/07 14:35:56;;;;;;;9.68;3.83;;;;;;;;;;6224767;23;20185;-82
2021/03/07 14:38:24;;;;;;;3.92;3.55;;;;;;;;;;6199732;23;20162;-84
2021/03/07 14:40:50;;;;;;;5.13;4.47;;;;;;;;;;6226920;23;20184;-83
2021/03/07 14:43:17;;;;;;;6.60;4.30;;;;;;;;;;6205130;23;20153;-83
2021/03/07 14:45:56;;;;;;;5.55;5.05;;;;;;;;;;6212236;23;20131;-83
2021/03/07 14:48:38;;;;;;;3.78;3.30;;;;;;;;;;6208566;23;20186;-84
2021/03/07 14:51:05;;;;;;;4.22;3.83;;;;;;;;;;6183012;23;20241;-84
2021/03/07 14:53:32;;;;;;;6.35;4.22;;;;;;;;;;6228754;23;20151;-85
2021/03/07 14:56:08;;;;;;;;;;;;;;;;;;;;;
2021/03/07 14:58:35;;;;;;;4.47;3.92;;;;;;;;;;6223760;23;20162;-82
2021/03/07 15:01:01;;;;;;;3.90;3.38;;;;;;;;;;6225306;23;20162;-83
2021/03/07 15:03:29;;;;;;;4.10;3.70;;;;;;;;;;6199927;23;20189;-83
2021/03/07 15:05:56;;;;;;;7.87;4.63;;;;;;;;;;6182074;23;20150;-85
2021/03/07 15:08:22;;;;;;;6.18;4.70;;;;;;;;;;6209016;23;20416;-83
2021/03/07 15:10:49;;;;;;;5.47;3.95;;;;;;;;;;6234872;23;20163;-84
2021/03/07 15:13:16;;;;;;;14.77;4.78;;;;;;;;;;6205611;23;20154;-83
2021/03/07 15:15:43;;;;;;;4.40;4.00;;;;;;;;;;6199404;23;20155;-83
2021/03/07 15:18:09;;;;;;;8.32;5.85;;;;;;;;;;6173765;23;20902;-85
2021/03/07 15:20:36;;;;;;;4.82;4.18;;;;;;;;;;6225346;23;20146;-84